Time;durP1;ratioP1;P1;durP2;ratioP2;P2;SDS_P1;SDS_P2;PMS_P1;PMS_P2;Temp;Humidity;BMP_temperature;BMP_pressure;BME280_temperature;BME280_humidity;BME280_pressure;Samples;Min_cycle;Max_cycle;Signal;HPM_P1;HPM_P2
2023/01/16 00:01:27;;;;;;;2.38;0.40;;;;;;;8.76;58.04;95857.00;4940183;28;20290;-75
2023/01/16 00:03:52;;;;;;;3.13;0.60;;;;;;;8.32;58.76;95837.63;4943090;28;20382;-75
2023/01/16 00:06:18;;;;;;;2.28;0.50;;;;;;;8.26;59.03;95838.69;4926849;28;20207;-74
2023/01/16 00:08:48;;;;;;;2.88;0.35;;;;;;;8.54;58.52;95829.56;4926307;28;20288;-75
2023/01/16 00:11:14;;;;;;;4.05;0.47;;;;;;;8.41;58.74;95820.50;4940418;28;20298;-75
2023/01/16 00:13:40;;;;;;;1.00;0.82;;;;;;;8.18;59.02;95818.47;4909173;28;20184;-75
2023/01/16 00:16:06;;;;;;;3.08;0.35;;;;;;;8.22;58.89;95801.34;4920692;28;20726;-74
2023/01/16 00:18:32;;;;;;;2.10;0.47;;;;;;;8.64;58.58;95797.63;4926839;28;20199;-74
2023/01/16 00:20:58;;;;;;;1.52;0.30;;;;;;;8.30;58.92;95798.22;4936561;28;20615;-75
2023/01/16 00:23:26;;;;;;;2.33;0.40;;;;;;;8.44;58.73;95783.66;4938329;28;20240;-75
2023/01/16 00:25:51;;;;;;;5.32;0.90;;;;;;;8.43;58.97;95778.75;4924387;28;20297;-75
2023/01/16 00:28:17;;;;;;;3.30;0.43;;;;;;;8.18;59.23;95780.34;4921397;28;20368;-75
2023/01/16 00:30:42;;;;;;;1.02;0.55;;;;;;;8.46;59.15;95774.84;4932072;28;20350;-75
2023/01/16 00:33:08;;;;;;;2.30;0.40;;;;;;;7.97;60.20;95773.63;4942067;28;20195;-74
2023/01/16 00:35:33;;;;;;;2.20;0.50;;;;;;;8.30;59.43;95772.28;4908830;28;20148;-75
2023/01/16 00:37:59;;;;;;;2.88;0.90;;;;;;;8.72;58.40;95773.72;4939279;28;20349;-76
2023/01/16 00:40:25;;;;;;;4.22;0.47;;;;;;;8.83;58.20;95758.88;4930022;28;20191;-76
2023/01/16 00:42:50;;;;;;;3.22;0.50;;;;;;;8.92;58.46;95756.50;4922026;28;20207;-75
2023/01/16 00:45:15;;;;;;;1.58;0.50;;;;;;;8.20;60.00;95743.78;4942096;28;20231;-76
2023/01/16 00:47:41;;;;;;;4.80;0.60;;;;;;;8.32;60.01;95738.31;4920579;28;20188;-76
2023/01/16 00:50:08;;;;;;;5.40;0.60;;;;;;;8.30;59.86;95730.03;4940236;28;20547;-76
2023/01/16 00:52:33;;;;;;;1.48;0.57;;;;;;;8.38;59.72;95732.03;4941753;28;20602;-75
2023/01/16 00:54:59;;;;;;;2.75;0.80;;;;;;;8.20;60.34;95728.22;4942769;28;20293;-75
2023/01/16 00:57:24;;;;;;;3.42;0.40;;;;;;;8.30;60.15;95727.44;4942201;28;20686;-75
2023/01/16 00:59:49;;;;;;;1.80;0.50;;;;;;;8.12;60.23;95721.75;4925460;28;20173;-74
2023/01/16 01:02:15;;;;;;;1.90;0.52;;;;;;;8.18;59.71;95707.00;4923883;28;20298;-75
2023/01/16 01:04:41;;;;;;;2.25;1.00;;;;;;;8.07;60.59;95696.66;4926372;28;20226;-75
2023/01/16 01:07:06;;;;;;;1.20;0.47;;;;;;;8.08;59.84;95697.41;4913430;28;20283;-76
2023/01/16 01:09:35;;;;;;;3.20;0.60;;;;;;;8.09;59.91;95695.59;4910528;28;20242;-74
2023/01/16 01:12:02;;;;;;;2.70;0.50;;;;;;;8.08;60.10;95681.88;4936934;28;20595;-76
2023/01/16 01:14:28;;;;;;;4.30;0.60;;;;;;;7.93;60.44;95669.72;4909037;28;20319;-75
2023/01/16 01:16:53;;;;;;;2.70;0.57;;;;;;;8.18;59.44;95670.69;4923405;28;20274;-75
2023/01/16 01:19:19;;;;;;;2.17;0.45;;;;;;;8.42;59.26;95668.25;4925019;28;20218;-75
2023/01/16 01:21:44;;;;;;;1.80;0.50;;;;;;;8.42;58.96;95655.28;4917162;28;20290;-76
2023/01/16 01:24:10;;;;;;;1.00;0.40;;;;;;;8.17;58.58;95663.94;4940907;28;20210;-75
2023/01/16 01:26:35;;;;;;;3.47;0.93;;;;;;;8.48;58.36;95648.28;4932894;28;20673;-76
2023/01/16 01:29:01;;;;;;;3.90;0.90;;;;;;;8.47;58.58;95652.69;4906589;28;20215;-75
2023/01/16 01:31:30;;;;;;;2.05;0.50;;;;;;;8.76;57.71;95642.38;4939119;28;20264;-75
2023/01/16 01:33:55;;;;;;;2.20;0.80;;;;;;;8.76;57.91;95639.78;4901293;28;20328;-75
2023/01/16 01:36:20;;;;;;;1.70;0.50;;;;;;;8.70;57.44;95634.91;4937522;28;20285;-75
2023/01/16 01:38:46;;;;;;;2.92;0.35;;;;;;;8.58;58.31;95640.44;4943801;28;20341;-75
2023/01/16 01:41:15;;;;;;;3.13;0.45;;;;;;;8.54;58.16;95634.25;4943019;28;20215;-76
2023/01/16 01:43:52;;;;;;;1.92;0.50;;;;;;;8.87;57.40;95629.34;4904849;28;20270;-76
2023/01/16 01:46:23;;;;;;;2.05;0.70;;;;;;;8.78;57.43;95616.94;4909182;28;20279;-74
2023/01/16 01:48:51;;;;;;;1.63;0.43;;;;;;;8.69;57.74;95617.78;4942062;28;20728;-75
2023/01/16 01:51:24;;;;;;;5.18;0.77;;;;;;;9.01;57.29;95606.91;4920964;28;20269;-76
2023/01/16 01:53:56;;;;;;;1.27;0.47;;;;;;;8.27;58.18;95606.09;4927262;28;20286;-74
2023/01/16 01:56:50;;;;;;;2.78;0.90;;;;;;;8.66;58.35;95602.78;4899631;28;20285;-74
2023/01/16 01:59:27;;;;;;;1.55;0.68;;;;;;;8.53;57.55;95598.94;4927200;28;20650;-75
2023/01/16 02:01:53;;;;;;;3.50;0.95;;;;;;;8.54;57.64;95584.94;4921637;28;20111;-75
2023/01/16 02:04:24;;;;;;;3.45;0.50;;;;;;;8.86;57.07;95587.06;4925878;28;20195;-75
2023/01/16 02:06:56;;;;;;;2.75;0.40;;;;;;;8.98;56.58;95581.50;4910568;28;20273;-75
2023/01/16 02:09:22;;;;;;;1.25;0.50;;;;;;;8.60;57.67;95576.06;4942391;28;20409;-76
2023/01/16 02:12:06;;;;;;;5.88;1.23;;;;;;;8.48;57.64;95570.44;4945271;28;20708;-74
2023/01/16 02:14:35;;;;;;;3.50;0.50;;;;;;;8.27;58.24;95557.59;4907048;28;20286;-75
2023/01/16 02:20:08;;;;;;;2.42;0.52;;;;;;;8.58;58.12;95544.44;4945605;28;20282;-75
2023/01/16 02:22:58;;;;;;;1.25;0.40;;;;;;;8.56;57.80;95536.16;4940515;28;20310;-75
2023/01/16 02:25:42;;;;;;;3.17;0.70;;;;;;;8.71;57.47;95530.84;4938773;28;20172;-75
2023/01/16 02:28:26;;;;;;;3.17;0.30;;;;;;;8.56;57.72;95531.75;4929720;28;20138;-76
2023/01/16 02:31:06;;;;;;;9.25;1.15;;;;;;;8.83;57.27;95516.75;4938294;28;20650;-76
2023/01/16 02:33:45;;;;;;;2.33;0.50;;;;;;;8.42;58.22;95500.47;4932849;28;20196;-75
2023/01/16 02:36:38;;;;;;;1.08;0.30;;;;;;;8.67;57.25;95493.53;4943961;28;20286;-75
2023/01/16 02:39:25;;;;;;;3.53;0.40;;;;;;;8.58;57.60;95484.78;4945932;28;20657;-75
2023/01/16 02:42:01;;;;;;;1.42;1.10;;;;;;;8.67;57.42;95474.59;4944367;28;20577;-74
2023/01/16 02:44:53;;;;;;;3.63;0.70;;;;;;;8.58;57.49;95471.81;4937993;28;20361;-76
2023/01/16 02:47:38;;;;;;;1.65;1.00;;;;;;;8.68;57.12;95469.13;4945112;28;20194;-75
2023/01/16 02:50:18;;;;;;;3.15;0.63;;;;;;;8.39;58.32;95449.09;4930505;28;20215;-75
2023/01/16 02:53:02;;;;;;;2.10;0.50;;;;;;;8.61;57.52;95446.09;4926535;28;20199;-75
2023/01/16 02:55:37;;;;;;;4.18;0.40;;;;;;;8.40;57.58;95429.91;4944719;28;20196;-75
2023/01/16 02:58:05;;;;;;;1.33;0.40;;;;;;;8.52;56.94;95428.81;4921786;28;20178;-75
2023/01/16 03:00:34;;;;;;;3.55;1.10;;;;;;;8.67;56.59;95414.91;4931715;28;20360;-75
2023/01/16 03:03:00;;;;;;;3.38;0.30;;;;;;;8.49;56.95;95411.22;4924585;28;20188;-75
2023/01/16 03:05:27;;;;;;;2.35;0.88;;;;;;;8.56;56.83;95412.41;4915615;28;20348;-75
2023/01/16 03:08:00;;;;;;;2.13;0.70;;;;;;;8.70;56.78;95409.94;4908948;28;20242;-76
2023/01/16 03:11:06;;;;;;;2.13;0.40;;;;;;;8.59;56.86;95411.09;4942386;28;20287;-74
2023/01/16 03:13:43;;;;;;;1.60;0.50;;;;;;;8.69;57.24;95399.84;4923198;28;20281;-76
2023/01/16 03:16:11;;;;;;;2.10;0.45;;;;;;;8.42;56.96;95394.13;4933546;28;20699;-75
2023/01/16 03:18:40;;;;;;;2.25;0.40;;;;;;;8.53;56.66;95388.84;4945564;28;20282;-74
2023/01/16 03:21:17;;;;;;;3.47;0.50;;;;;;;8.72;56.76;95374.13;4935088;28;20705;-75
2023/01/16 03:23:53;;;;;;;1.55;0.52;;;;;;;8.19;57.50;95355.94;4913257;28;20166;-75
2023/01/16 03:26:27;;;;;;;4.43;0.65;;;;;;;8.63;56.87;95355.03;4939083;28;20730;-75
2023/01/16 03:28:59;;;;;;;1.65;0.40;;;;;;;8.23;57.34;95349.94;4940790;28;20693;-75
2023/01/16 03:31:50;;;;;;;1.95;0.40;;;;;;;8.75;56.53;95339.81;4938836;28;20298;-75
2023/01/16 03:34:21;;;;;;;0.73;0.40;;;;;;;8.52;56.72;95338.03;4946359;28;20657;-75
2023/01/16 03:36:58;;;;;;;1.98;0.40;;;;;;;7.99;57.98;95315.44;4946033;28;20764;-77
2023/01/16 03:39:36;;;;;;;1.52;0.40;;;;;;;8.41;57.33;95319.97;4927201;28;20573;-75
2023/01/16 03:42:07;;;;;;;1.60;0.25;;;;;;;8.38;57.42;95317.13;4929639;28;20193;-75
2023/01/16 03:44:39;;;;;;;3.13;0.30;;;;;;;8.46;57.46;95300.22;4944891;28;20323;-75
2023/01/16 03:47:11;;;;;;;1.65;0.40;;;;;;;8.64;56.91;95307.28;4920916;28;20296;-74
2023/01/16 03:49:40;;;;;;;1.75;0.68;;;;;;;8.55;56.52;95294.16;4922617;28;20187;-74
2023/01/16 03:52:09;;;;;;;2.47;0.73;;;;;;;8.35;57.37;95292.53;4928586;28;20248;-75
2023/01/16 03:54:55;;;;;;;1.02;0.52;;;;;;;8.46;57.16;95284.66;4913158;28;20277;-74
2023/01/16 03:57:25;;;;;;;2.53;0.65;;;;;;;8.33;57.17;95286.84;4946293;28;20261;-75
2023/01/16 03:59:52;;;;;;;2.00;0.90;;;;;;;8.66;56.57;95266.25;4944585;28;20668;-75
2023/01/16 04:02:43;;;;;;;1.60;0.40;;;;;;;8.39;57.10;95266.81;4927470;28;20168;-75
2023/01/16 04:05:13;;;;;;;2.65;0.32;;;;;;;8.38;57.04;95252.28;4909395;28;20215;-76
2023/01/16 04:07:43;;;;;;;3.83;0.50;;;;;;;8.61;56.36;95240.38;4940200;28;20274;-75
2023/01/16 04:10:15;;;;;;;0.73;0.35;;;;;;;8.47;57.18;95232.53;4928771;28;20215;-75
2023/01/16 04:12:43;;;;;;;2.85;0.70;;;;;;;8.48;57.11;95226.25;4944750;28;20252;-75
2023/01/16 04:15:10;;;;;;;4.57;1.58;;;;;;;8.41;57.05;95212.84;4926160;28;20251;-75
2023/01/16 04:17:36;;;;;;;2.20;0.30;;;;;;;8.48;56.17;95202.94;4912268;28;20181;-76
2023/01/16 04:20:02;;;;;;;1.63;0.32;;;;;;;8.33;55.91;95190.91;4938298;28;20204;-74
2023/01/16 04:22:29;;;;;;;2.65;0.80;;;;;;;8.47;56.81;95192.84;4918326;28;20200;-74
2023/01/16 04:24:59;;;;;;;1.45;0.40;;;;;;;8.43;56.64;95184.84;4940988;28;20216;-75
2023/01/16 04:27:25;;;;;;;0.55;0.30;;;;;;;8.18;55.95;95175.53;4944519;28;20621;-74
2023/01/16 04:29:50;;;;;;;3.25;0.50;;;;;;;8.33;56.32;95167.56;4927001;28;20190;-75
2023/01/16 04:32:16;;;;;;;1.40;0.47;;;;;;;8.36;55.79;95167.03;4945724;28;20646;-76
2023/01/16 04:34:41;;;;;;;3.40;0.82;;;;;;;8.04;57.31;95158.06;4926833;28;20742;-76
2023/01/16 04:37:07;;;;;;;0.80;0.47;;;;;;;8.14;56.42;95148.63;4921882;28;20208;-75
2023/01/16 04:39:32;;;;;;;2.20;0.40;;;;;;;8.23;56.07;95150.31;4940090;28;20165;-75
2023/01/16 04:41:57;;;;;;;2.05;0.35;;;;;;;8.25;56.27;95142.28;4924557;28;20192;-74
2023/01/16 04:44:23;;;;;;;3.05;1.10;;;;;;;7.67;57.41;95131.00;4943042;28;20245;-76
2023/01/16 04:46:48;;;;;;;1.88;0.50;;;;;;;7.66;57.84;95129.47;4927703;28;20212;-76
2023/01/16 04:49:14;;;;;;;2.47;0.50;;;;;;;7.59;57.83;95110.13;4927056;28;20377;-75
2023/01/16 04:51:39;;;;;;;4.07;0.88;;;;;;;7.34;58.22;95099.00;4911370;28;20294;-75
2023/01/16 04:54:09;;;;;;;0.73;0.40;;;;;;;7.06;58.95;95091.00;4944119;28;20250;-76
2023/01/16 04:56:35;;;;;;;3.33;0.40;;;;;;;7.25;58.03;95078.13;4930589;28;20188;-75
2023/01/16 04:59:01;;;;;;;1.48;0.30;;;;;;;7.42;57.97;95069.13;4944954;28;20665;-74
2023/01/16 05:01:34;;;;;;;0.60;0.22;;;;;;;7.13;58.48;95057.03;4936245;28;20187;-75
2023/01/16 05:03:59;;;;;;;2.40;0.52;;;;;;;7.42;57.96;95051.81;4938557;28;20215;-75
2023/01/16 05:06:25;;;;;;;2.67;0.30;;;;;;;7.17;58.01;95034.72;4930468;28;20181;-75
2023/01/16 05:08:50;;;;;;;1.65;0.40;;;;;;;7.14;58.60;95022.31;4937709;28;20230;-75
2023/01/16 05:11:15;;;;;;;2.40;0.30;;;;;;;7.13;58.17;95016.38;4926988;28;20673;-76
2023/01/16 05:13:41;;;;;;;3.40;1.00;;;;;;;7.18;58.32;95012.19;4944520;28;20662;-75
2023/01/16 05:16:06;;;;;;;1.58;0.40;;;;;;;7.19;58.15;94998.97;4906541;28;20702;-75
2023/01/16 05:18:32;;;;;;;0.55;0.38;;;;;;;7.28;58.05;94992.16;4911272;28;20630;-75
2023/01/16 05:20:57;;;;;;;2.13;0.20;;;;;;;7.18;58.32;94996.66;4902503;28;20583;-75
2023/01/16 05:23:22;;;;;;;2.05;0.20;;;;;;;7.23;58.40;94981.06;4926863;28;20751;-75
2023/01/16 05:25:48;;;;;;;1.20;0.30;;;;;;;7.27;58.32;94975.06;4926890;28;20309;-75
2023/01/16 05:28:13;;;;;;;3.20;0.30;;;;;;;7.17;58.48;94975.19;4941040;28;20203;-74
2023/01/16 05:30:39;;;;;;;2.40;0.30;;;;;;;6.84;59.16;94962.09;4941574;28;20367;-75
2023/01/16 05:33:06;;;;;;;1.40;0.30;;;;;;;6.77;59.59;94956.50;4943243;28;20083;-75
2023/01/16 05:35:31;;;;;;;2.75;0.95;;;;;;;7.02;59.13;94941.72;4942046;28;20235;-75
2023/01/16 05:37:57;;;;;;;0.88;0.30;;;;;;;7.01;59.23;94935.00;4942093;28;20542;-75
2023/01/16 05:40:22;;;;;;;2.35;0.43;;;;;;;7.03;58.75;94930.34;4935829;28;20327;-74
2023/01/16 05:42:47;;;;;;;0.95;0.20;;;;;;;6.88;58.62;94924.28;4914015;28;20223;-75
2023/01/16 05:45:13;;;;;;;1.60;0.20;;;;;;;7.01;59.09;94911.72;4905709;28;20292;-76
2023/01/16 05:47:39;;;;;;;2.00;0.50;;;;;;;6.75;58.80;94906.84;4943417;28;20286;-76
2023/01/16 05:50:07;;;;;;;1.80;0.30;;;;;;;6.78;59.25;94895.94;4943176;28;20189;-76
2023/01/16 05:52:33;;;;;;;1.00;0.73;;;;;;;6.80;58.83;94891.25;4944393;28;20169;-74
2023/01/16 05:54:58;;;;;;;0.77;0.20;;;;;;;6.61;59.12;94880.09;4943580;28;20781;-75
2023/01/16 05:57:24;;;;;;;0.85;0.30;;;;;;;6.63;59.02;94876.22;4942709;28;20289;-75
2023/01/16 05:59:50;;;;;;;1.88;0.25;;;;;;;6.74;59.04;94863.94;4942732;28;20264;-75
2023/01/16 06:02:16;;;;;;;1.08;0.30;;;;;;;6.82;59.32;94857.38;4938424;28;20198;-75
2023/01/16 06:04:42;;;;;;;1.13;0.22;;;;;;;6.77;58.88;94842.69;4934751;28;20649;-76
2023/01/16 06:07:08;;;;;;;1.30;0.22;;;;;;;6.93;58.44;94843.28;4926001;28;20216;-75
2023/01/16 06:09:33;;;;;;;1.02;0.30;;;;;;;6.72;58.68;94835.00;4926882;28;20225;-75
2023/01/16 06:11:58;;;;;;;1.08;0.30;;;;;;;6.81;58.43;94833.31;4944253;28;20216;-75
2023/01/16 06:14:24;;;;;;;1.38;0.22;;;;;;;6.79;58.19;94814.72;4923158;28;20220;-76
2023/01/16 06:16:49;;;;;;;1.40;0.30;;;;;;;6.69;58.58;94807.09;4923894;28;20265;-75
2023/01/16 06:19:14;;;;;;;0.70;0.20;;;;;;;6.64;58.54;94796.81;4925987;28;20367;-75
2023/01/16 06:21:40;;;;;;;1.75;0.10;;;;;;;6.80;58.30;94797.38;4916592;28;20192;-75
2023/01/16 06:24:05;;;;;;;1.60;0.60;;;;;;;6.64;58.46;94784.66;4939912;28;20259;-75
2023/01/16 06:26:31;;;;;;;3.03;0.28;;;;;;;6.59;57.56;94787.31;4918932;28;20242;-75
2023/01/16 06:28:56;;;;;;;4.18;0.52;;;;;;;6.36;58.74;94781.13;4937316;28;20338;-75
2023/01/16 06:31:24;;;;;;;0.98;0.38;;;;;;;6.64;57.80;94787.25;4927282;28;20761;-75
2023/01/16 06:33:50;;;;;;;2.03;0.20;;;;;;;6.71;58.05;94776.56;4921603;28;20200;-75
2023/01/16 06:36:15;;;;;;;1.48;0.43;;;;;;;6.64;57.75;94776.91;4941238;28;20277;-75
2023/01/16 06:38:41;;;;;;;3.70;0.47;;;;;;;6.54;58.37;94766.69;4942630;28;20161;-75
2023/01/16 06:41:06;;;;;;;0.82;0.40;;;;;;;6.60;58.92;94768.16;4936232;28;20325;-75
2023/01/16 06:43:31;;;;;;;3.45;0.40;;;;;;;6.53;57.44;94752.22;4920276;28;20195;-75
2023/01/16 06:45:57;;;;;;;2.85;1.67;;;;;;;6.51;57.46;94746.56;4907516;28;20843;-76
2023/01/16 06:48:22;;;;;;;2.50;0.35;;;;;;;6.75;57.46;94741.31;4940558;28;20733;-75
2023/01/16 06:50:48;;;;;;;0.80;0.20;;;;;;;6.51;57.99;94731.84;4942945;28;20207;-75
2023/01/16 06:53:14;;;;;;;1.42;0.57;;;;;;;6.85;57.53;94730.06;4926539;28;20709;-75
2023/01/16 06:55:40;;;;;;;3.38;0.50;;;;;;;6.49;57.35;94723.56;4899987;28;20623;-74
2023/01/16 06:58:07;;;;;;;2.15;0.25;;;;;;;6.37;58.17;94703.31;4925939;28;20672;-75
2023/01/16 07:00:33;;;;;;;2.42;0.93;;;;;;;6.46;58.67;94700.88;4928185;28;20681;-76
2023/01/16 07:02:59;;;;;;;2.67;0.40;;;;;;;6.23;58.31;94699.84;4927349;28;20227;-75
2023/01/16 07:05:26;;;;;;;1.75;0.45;;;;;;;6.60;57.71;94682.06;4936301;28;20682;-76
2023/01/16 07:07:51;;;;;;;1.52;0.38;;;;;;;6.69;56.99;94685.56;4924246;28;20182;-75
2023/01/16 07:10:20;;;;;;;2.88;0.85;;;;;;;6.87;56.92;94671.84;4904592;28;20278;-75
2023/01/16 07:12:46;;;;;;;2.20;0.50;;;;;;;6.39;57.55;94666.84;4946573;28;20708;-75
2023/01/16 07:23:34;;;;;;;1.15;0.30;;;;;;;6.80;57.20;94655.16;4942200;28;20197;-75
2023/01/16 07:26:01;;;;;;;0.98;0.22;;;;;;;6.88;56.43;94633.81;4911702;28;20271;-75
2023/01/16 07:28:27;;;;;;;1.38;0.20;;;;;;;6.53;56.47;94646.25;4945812;28;20283;-75
2023/01/16 07:30:54;;;;;;;0.40;0.30;;;;;;;6.73;56.66;94637.41;4928716;28;20250;-74
2023/01/16 07:33:22;;;;;;;0.77;0.20;;;;;;;6.63;56.66;94637.56;4904724;28;20191;-75
2023/01/16 07:35:47;;;;;;;1.25;0.32;;;;;;;6.24;57.21;94628.28;4928404;28;20250;-74
2023/01/16 07:38:12;;;;;;;1.80;0.20;;;;;;;6.85;56.12;94619.63;4920202;28;20219;-75
2023/01/16 07:40:38;;;;;;;1.55;0.55;;;;;;;7.05;55.63;94620.34;4926231;28;20165;-74
2023/01/16 07:43:04;;;;;;;2.65;0.63;;;;;;;7.10;54.93;94617.69;4905178;28;20708;-75
2023/01/16 07:45:30;;;;;;;1.83;0.30;;;;;;;7.04;55.52;94621.41;4906867;28;20387;-75
2023/01/16 07:47:55;;;;;;;1.17;0.20;;;;;;;7.30;55.05;94606.97;4930815;28;20700;-76
2023/01/16 07:50:21;;;;;;;1.60;0.68;;;;;;;7.20;53.95;94611.56;4936835;28;20173;-76
2023/01/16 07:52:46;;;;;;;1.95;0.47;;;;;;;6.96;55.59;94596.19;4928897;28;20347;-75
2023/01/16 07:55:12;;;;;;;1.25;0.28;;;;;;;7.04;53.98;94565.28;4911523;28;20273;-75
2023/01/16 07:57:38;;;;;;;0.77;0.20;;;;;;;7.42;53.95;94538.41;4921076;28;20254;-75
2023/01/16 08:00:06;;;;;;;1.67;0.63;;;;;;;7.31;54.25;94555.97;4929518;28;20025;-74
2023/01/16 08:02:31;;;;;;;1.15;0.20;;;;;;;7.34;54.63;94558.00;4950683;28;20029;-74
2023/01/16 08:04:56;;;;;;;2.35;0.52;;;;;;;7.08;54.93;94558.47;4931140;28;20207;-75
2023/01/16 08:07:22;;;;;;;0.98;0.20;;;;;;;6.81;54.94;94551.41;4940191;28;20223;-75
2023/01/16 08:09:49;;;;;;;3.17;0.40;;;;;;;7.26;54.87;94543.13;4935743;28;20200;-75
2023/01/16 08:12:15;;;;;;;1.23;0.20;;;;;;;7.10;55.67;94546.00;4911445;28;20095;-76
2023/01/16 08:14:40;;;;;;;1.38;0.10;;;;;;;6.94;55.75;94531.81;4929183;28;20693;-75
2023/01/16 08:17:06;;;;;;;1.95;0.38;;;;;;;6.96;56.66;94532.28;4928750;28;20220;-75
2023/01/16 08:19:31;;;;;;;2.33;0.60;;;;;;;6.87;56.02;94537.38;4912251;28;20204;-75
2023/01/16 08:21:56;;;;;;;1.05;0.55;;;;;;;7.01;55.81;94534.00;4941283;28;20515;-75
2023/01/16 08:24:23;;;;;;;1.15;0.40;;;;;;;6.77;56.32;94531.56;4912329;28;20298;-75
2023/01/16 08:26:49;;;;;;;2.88;0.40;;;;;;;6.51;58.30;94535.38;4925575;28;20637;-75
2023/01/16 08:29:14;;;;;;;1.55;0.30;;;;;;;6.78;58.39;94538.28;4912559;28;20342;-75
2023/01/16 08:31:40;;;;;;;1.35;0.40;;;;;;;6.99;58.94;94538.69;4927601;28;20669;-76
2023/01/16 08:34:05;;;;;;;1.60;0.60;;;;;;;6.38;59.68;94528.34;4944870;28;20233;-75
2023/01/16 08:36:30;;;;;;;2.13;0.30;;;;;;;6.76;59.91;94520.47;4947273;28;20207;-75
2023/01/16 08:38:56;;;;;;;5.35;0.75;;;;;;;6.35;60.75;94510.81;4945100;28;20709;-75
2023/01/16 08:52:23;;;;;;;0.85;0.17;;;;;;;6.80;60.43;94480.06;4944012;28;20226;-75
2023/01/16 08:54:48;;;;;;;0.70;0.30;;;;;;;6.78;60.02;94471.81;4945252;28;20677;-75
2023/01/16 08:57:13;;;;;;;1.48;0.35;;;;;;;6.78;61.02;94482.16;4927812;28;20148;-75
2023/01/16 08:59:39;;;;;;;1.23;0.10;;;;;;;6.60;60.90;94468.28;4944853;28;20172;-75
2023/01/16 09:02:05;;;;;;;1.27;0.20;;;;;;;6.64;60.53;94471.06;4927686;28;20194;-75
2023/01/16 09:04:30;;;;;;;0.57;0.20;;;;;;;6.60;60.91;94464.91;4911684;28;20262;-75
2023/01/16 09:06:55;;;;;;;1.63;0.20;;;;;;;6.80;60.81;94461.94;4928745;28;20298;-76
2023/01/16 09:09:21;;;;;;;1.42;0.30;;;;;;;6.83;61.16;94469.13;4928291;28;20321;-75
2023/01/16 09:14:37;;;;;;;0.68;0.25;;;;;;;6.97;60.95;94453.63;4940398;28;20697;-76
2023/01/16 09:17:05;;;;;;;1.17;0.28;;;;;;;6.80;61.81;94459.38;4944580;28;20188;-78
2023/01/16 09:19:31;;;;;;;0.93;0.30;;;;;;;6.77;62.68;94454.00;4928381;28;20574;-75
2023/01/16 09:21:56;;;;;;;2.15;0.20;;;;;;;6.70;62.91;94455.16;4945706;28;20203;-75
2023/01/16 09:24:22;;;;;;;0.77;0.20;;;;;;;6.91;62.55;94441.84;4911602;28;20205;-76
2023/01/16 09:26:47;;;;;;;0.82;0.28;;;;;;;6.93;62.76;94442.31;4944153;28;20645;-76
2023/01/16 09:29:12;;;;;;;1.17;0.60;;;;;;;6.70;63.50;94447.41;4927925;28;20223;-75
2023/01/16 09:31:38;;;;;;;0.40;0.20;;;;;;;6.89;63.22;94436.97;4942664;28;20197;-76
2023/01/16 09:34:03;;;;;;;2.10;0.40;;;;;;;6.69;63.14;94434.75;4896581;28;20533;-75
2023/01/16 09:36:29;;;;;;;1.00;0.20;;;;;;;6.78;63.16;94427.09;4937696;28;20660;-76
2023/01/16 09:38:54;;;;;;;1.42;0.30;;;;;;;6.67;62.85;94427.28;4927501;28;20522;-76
2023/01/16 09:44:07;;;;;;;1.25;0.20;;;;;;;6.91;62.93;94426.34;4943657;28;20219;-75
2023/01/16 09:46:43;;;;;;;0.52;0.20;;;;;;;6.75;62.85;94425.84;4927586;28;20329;-75
2023/01/16 09:49:28;;;;;;;1.85;0.30;;;;;;;7.03;62.57;94428.44;4910877;28;20337;-75
2023/01/16 10:00:26;;;;;;;0.80;0.35;;;;;;;7.11;63.26;94413.00;4929654;28;20207;-76
2023/01/16 10:02:51;;;;;;;3.13;0.28;;;;;;;7.09;63.32;94409.94;4909633;28;20357;-76
2023/01/16 10:05:17;;;;;;;0.70;0.20;;;;;;;7.20;63.55;94410.50;4943291;28;20322;-76
2023/01/16 10:08:01;;;;;;;2.72;0.60;;;;;;;7.63;62.42;94417.84;4927175;28;20281;-76
2023/01/16 10:10:42;;;;;;;1.77;0.40;;;;;;;7.58;61.94;94405.03;4943153;28;20620;-76
2023/01/16 10:13:27;;;;;;;1.17;0.20;;;;;;;7.25;61.66;94399.28;4943085;28;20161;-76
2023/01/16 10:16:15;;;;;;;0.73;0.20;;;;;;;7.47;61.82;94393.34;4943928;28;20285;-76
2023/01/16 10:18:52;;;;;;;1.27;0.40;;;;;;;7.22;62.90;94387.66;4917012;28;20722;-75
2023/01/16 10:21:40;;;;;;;0.65;0.20;;;;;;;7.07;62.38;94375.81;4927128;28;20194;-76
2023/01/16 10:24:34;;;;;;;0.20;0.17;;;;;;;7.35;61.82;94369.81;4943151;28;20650;-75
2023/01/16 10:27:21;;;;;;;0.63;0.20;;;;;;;7.45;61.99;94351.47;4943015;28;20330;-76
2023/01/16 10:29:51;;;;;;;2.80;0.43;;;;;;;7.58;61.23;94353.22;4937250;28;20295;-76
2023/01/16 10:32:26;;;;;;;0.68;0.20;;;;;;;7.63;60.86;94342.75;4924800;28;20272;-75
2023/01/16 10:35:04;;;;;;;1.05;0.20;;;;;;;7.78;61.70;94343.44;4913966;28;20377;-76
2023/01/16 10:37:31;;;;;;;0.85;0.30;;;;;;;7.73;59.73;94325.44;4945678;28;20626;-76
2023/01/16 10:39:58;;;;;;;0.85;0.25;;;;;;;7.50;59.32;94317.69;4931212;28;20219;-76
2023/01/16 10:51:15;;;;;;;1.23;0.68;;;;;;;7.55;60.15;94314.97;4927261;28;20776;-75
2023/01/16 10:53:40;;;;;;;0.63;0.10;;;;;;;7.81;60.52;94309.19;4911136;28;20257;-76
2023/01/16 10:56:06;;;;;;;0.30;0.20;;;;;;;7.80;60.25;94302.50;4911139;28;20250;-75
2023/01/16 10:58:37;;;;;;;0.20;0.13;;;;;;;7.55;60.19;94293.50;4930297;28;20257;-75
2023/01/16 11:01:06;;;;;;;0.32;0.20;;;;;;;8.15;59.93;94284.50;4928779;28;20203;-76
2023/01/16 11:03:38;;;;;;;2.05;0.68;;;;;;;8.04;59.29;94260.69;4914034;28;20161;-76
2023/01/16 11:06:20;;;;;;;1.30;0.20;;;;;;;7.96;59.34;94258.81;4930209;28;20219;-75
2023/01/16 11:08:54;;;;;;;0.20;0.20;;;;;;;8.24;58.98;94249.00;4913964;28;20369;-75
2023/01/16 11:20:13;;;;;;;0.63;0.20;;;;;;;8.41;58.86;94224.94;4946429;28;20200;-75
2023/01/16 11:22:39;;;;;;;0.98;0.20;;;;;;;8.45;58.83;94210.34;4913442;28;20165;-75
2023/01/16 11:25:06;;;;;;;0.25;0.17;;;;;;;8.21;58.92;94202.97;4913809;28;20278;-76
2023/01/16 11:27:34;;;;;;;0.45;0.10;;;;;;;8.38;58.88;94200.41;4930433;28;20624;-75
2023/01/16 11:30:03;;;;;;;0.28;0.15;;;;;;;8.35;58.56;94188.03;4913039;28;20238;-76
2023/01/16 11:32:48;;;;;;;0.90;0.17;;;;;;;8.60;57.99;94193.56;4922225;28;20300;-75
2023/01/16 11:35:15;;;;;;;0.30;0.20;;;;;;;8.80;58.84;94180.00;4930858;28;20262;-76
2023/01/16 11:37:44;;;;;;;0.10;0.10;;;;;;;8.65;58.00;94184.88;4929693;28;20293;-76
2023/01/16 11:40:18;;;;;;;0.40;0.20;;;;;;;8.96;59.23;94172.50;4913622;28;20169;-76
2023/01/16 11:46:04;;;;;;;1.25;0.20;;;;;;;8.74;57.09;94150.09;4944656;28;20231;-76
2023/01/16 11:48:48;;;;;;;2.38;0.50;;;;;;;8.78;58.41;94152.84;4930233;28;20586;-75
2023/01/16 11:51:20;;;;;;;0.20;0.10;;;;;;;8.79;57.91;94155.13;4913090;28;20623;-76
2023/01/16 11:53:46;;;;;;;0.30;0.25;;;;;;;8.84;57.90;94138.63;4913063;28;20693;-75
2023/01/16 11:56:18;;;;;;;0.70;0.20;;;;;;;9.08;57.61;94122.56;4943038;28;20176;-76
2023/01/16 11:58:52;;;;;;;0.17;0.10;;;;;;;9.04;57.41;94113.88;4945733;28;20654;-76
2023/01/16 12:02:15;;;;;;;1.00;0.30;;;;;;;9.04;57.40;94103.50;4943994;28;20316;-76
2023/01/16 12:04:22;;;;;;;1.42;0.30;;;;;;;8.68;58.00;94116.84;4931881;28;20293;-76
2023/01/16 12:07:07;;;;;;;0.30;0.30;;;;;;;8.79;57.84;94097.28;4929467;28;20199;-76
2023/01/16 12:09:48;;;;;;;0.10;0.10;;;;;;;8.59;58.61;94093.50;4944696;28;20197;-76
2023/01/16 12:15:30;;;;;;;0.32;0.10;;;;;;;8.53;59.33;94074.75;4944818;28;20366;-76
2023/01/16 12:18:11;;;;;;;0.47;0.30;;;;;;;8.68;60.14;94063.13;4929613;28;20666;-76
2023/01/16 12:20:53;;;;;;;0.30;0.10;;;;;;;8.71;59.37;94065.13;4909960;28;20188;-75
2023/01/16 12:23:40;;;;;;;0.85;0.20;;;;;;;8.07;61.34;94047.59;4928183;28;20186;-75
2023/01/16 12:26:12;;;;;;;0.38;0.10;;;;;;;8.29;62.44;94041.50;4945087;28;20316;-76
2023/01/16 12:28:58;;;;;;;0.10;0.10;;;;;;;8.27;62.08;94037.69;4928729;28;20303;-76
2023/01/16 12:31:37;;;;;;;0.20;0.17;;;;;;;8.26;62.36;94031.75;4944101;28;20196;-76
2023/01/16 12:34:28;;;;;;;0.63;0.20;;;;;;;8.48;61.91;94030.06;4929538;28;20216;-75
2023/01/16 12:36:59;;;;;;;0.43;0.30;;;;;;;8.04;62.84;94012.72;4947089;28;20223;-76
2023/01/16 12:40:03;;;;;;;0.28;0.20;;;;;;;8.42;63.05;94001.72;4893645;28;20682;-75
2023/01/16 12:45:34;;;;;;;0.63;0.20;;;;;;;8.25;63.19;93988.75;4908254;28;20355;-76
2023/01/16 12:48:37;;;;;;;0.25;0.20;;;;;;;8.47;63.77;94007.81;4906494;28;20285;-76
2023/01/16 12:51:36;;;;;;;0.43;0.20;;;;;;;8.05;64.23;93998.69;4904256;28;20617;-75
2023/01/16 12:54:20;;;;;;;1.35;0.47;;;;;;;8.21;64.71;94003.41;4922820;28;20283;-75
2023/01/16 12:57:08;;;;;;;0.55;0.20;;;;;;;8.24;64.57;93992.41;4906241;28;20253;-76
2023/01/16 12:59:51;;;;;;;0.98;0.28;;;;;;;7.92;65.04;93998.81;4900488;28;20512;-75